RKSI/ICN METAR and TAF weather

Enter ICAO airport designator
Station Type Date Time Source
RKSI METAR 2024/02/26 17:30 UTC NOAA

RKSI 261730Z 05010KT CAVOK 02/M03 Q1030 NOSIG


Station Type Date Time Source
RKSI Decoded METAR 2024/02/26 17:30 UTC NOAA

Incheon International Airport, Korea, South (RKSI) 37-28N 126-27E
Feb 26, 2024 - 12:30 PM EST / 2024.02.26 1730 UTC
Wind: from the NE (050 degrees) at 12 MPH (10 KT):0
Visibility: greater than 7 mile(s):0
Temperature: 35 F (2 C)
Windchill: 26 F (-3 C):1
Dew Point: 26 F (-3 C)
Relative Humidity: 69%
Pressure (altimeter): 30.42 in. Hg (1030 hPa)
ob: RKSI 261730Z 05010KT CAVOK 02/M03 Q1030 NOSIG
cycle: 17

Station Type Date Time Source
RKSI TAF 2024/02/26 18:09 UTC NOAA